Time;durP1;ratioP1;P1;durP2;ratioP2;P2;SDS_P1;SDS_P2;PMS_P1;PMS_P2;Temp;Humidity;BMP_temperature;BMP_pressure;BME280_temperature;BME280_humidity;BME280_pressure;Samples;Min_cycle;Max_cycle;Signal;HPM_P1;HPM_P2
2023/02/10 00:00:29;;;;;;;109.33;56.53;;;;;;;;;;4404051;32;318298;-87
2023/02/10 00:02:56;;;;;;;101.50;50.73;;;;;;;;;;4403206;32;319261;-87
2023/02/10 00:05:23;;;;;;;82.40;45.77;;;;;;;;;;4392744;32;344957;-88
2023/02/10 00:07:50;;;;;;;80.30;40.73;;;;;;;;;;4404800;32;318473;-87
2023/02/10 00:10:16;;;;;;;87.57;45.77;;;;;;;;;;4395142;32;318137;-87
2023/02/10 00:12:43;;;;;;;85.63;45.60;;;;;;;;;;4403600;32;318619;-87
2023/02/10 00:15:10;;;;;;;103.20;51.53;;;;;;;;;;4392667;32;352713;-88
2023/02/10 00:17:38;;;;;;;97.07;53.40;;;;;;;;;;4404116;32;319227;-87
2023/02/10 00:20:06;;;;;;;113.53;56.47;;;;;;;;;;4393523;32;318465;-86
2023/02/10 00:22:33;;;;;;;156.17;84.30;;;;;;;;;;4403508;32;319134;-87
2023/02/10 00:25:00;;;;;;;157.30;81.13;;;;;;;;;;4403434;32;319318;-87
2023/02/10 00:27:27;;;;;;;146.30;79.33;;;;;;;;;;4392029;32;418475;-87
2023/02/10 00:29:53;;;;;;;118.60;67.43;;;;;;;;;;4404666;32;319353;-88
2023/02/10 00:32:20;;;;;;;111.90;60.30;;;;;;;;;;4393136;32;319373;-87
2023/02/10 00:34:48;;;;;;;121.20;59.60;;;;;;;;;;4402778;32;333200;-87
2023/02/10 00:37:15;;;;;;;114.10;56.13;;;;;;;;;;4392251;32;319339;-88
2023/02/10 00:39:42;;;;;;;117.67;57.93;;;;;;;;;;4404571;32;319047;-88
2023/02/10 00:42:08;;;;;;;143.00;66.33;;;;;;;;;;4393562;32;319467;-88
2023/02/10 00:44:35;;;;;;;150.93;67.70;;;;;;;;;;4402195;32;319095;-88
2023/02/10 00:47:02;;;;;;;153.03;73.27;;;;;;;;;;4392140;32;319457;-88
2023/02/10 00:49:29;;;;;;;160.33;77.90;;;;;;;;;;4403598;32;319131;-87
2023/02/10 00:51:57;;;;;;;166.60;80.60;;;;;;;;;;4404385;32;318734;-88
2023/02/10 00:54:24;;;;;;;173.20;80.47;;;;;;;;;;4394718;32;319268;-88
2023/02/10 00:56:50;;;;;;;178.47;80.43;;;;;;;;;;4403896;32;318496;-88
2023/02/10 00:59:17;;;;;;;151.47;73.17;;;;;;;;;;4392334;32;319280;-88
2023/02/10 01:01:44;;;;;;;169.17;74.13;;;;;;;;;;4402311;32;318651;-88
2023/02/10 01:04:11;;;;;;;165.27;74.23;;;;;;;;;;4393928;32;319587;-87
2023/02/10 01:06:38;;;;;;;139.60;69.50;;;;;;;;;;4402839;32;319360;-87
2023/02/10 01:09:06;;;;;;;155.73;76.80;;;;;;;;;;4392306;32;319676;-87
2023/02/10 01:11:32;;;;;;;126.43;61.30;;;;;;;;;;4403489;32;319517;-88
2023/02/10 01:13:59;;;;;;;158.05;75.65;;;;;;;;;;4401243;32;319232;-87
2023/02/10 01:16:26;;;;;;;181.33;80.27;;;;;;;;;;4389794;32;419919;-87
2023/02/10 01:18:53;;;;;;;159.93;73.73;;;;;;;;;;4404421;32;318485;-87
2023/02/10 01:21:21;;;;;;;157.20;70.57;;;;;;;;;;4392802;32;319303;-87
2023/02/10 01:23:51;;;;;;;148.40;70.80;;;;;;;;;;4403963;32;319071;-87
2023/02/10 01:26:19;;;;;;;136.33;62.93;;;;;;;;;;4393649;32;319690;-87
2023/02/10 01:28:46;;;;;;;130.10;58.87;;;;;;;;;;4403684;32;319334;-87
2023/02/10 01:31:14;;;;;;;132.00;64.13;;;;;;;;;;4393424;32;319493;-89
2023/02/10 01:33:42;;;;;;;129.27;60.03;;;;;;;;;;4401236;32;319193;-87
2023/02/10 01:36:11;;;;;;;141.97;64.47;;;;;;;;;;4392973;32;319319;-87
2023/02/10 01:38:38;;;;;;;138.50;63.03;;;;;;;;;;4402776;32;318640;-88
2023/02/10 01:41:06;;;;;;;160.50;70.33;;;;;;;;;;4392358;32;319143;-88
2023/02/10 01:43:53;;;;;;;146.30;68.00;;;;;;;;;;4403699;32;319300;-88
2023/02/10 01:46:20;;;;;;;153.40;70.57;;;;;;;;;;4394515;32;321503;-88
2023/02/10 01:48:47;;;;;;;148.60;75.33;;;;;;;;;;4404621;32;319307;-88
2023/02/10 01:51:16;;;;;;;150.40;75.97;;;;;;;;;;4394058;32;319562;-88
2023/02/10 01:53:43;;;;;;;144.53;69.50;;;;;;;;;;4404381;32;319060;-88
2023/02/10 01:56:12;;;;;;;117.33;60.87;;;;;;;;;;4394935;32;319406;-87
2023/02/10 01:58:41;;;;;;;134.20;59.33;;;;;;;;;;4405124;32;319402;-88
2023/02/10 02:01:08;;;;;;;119.27;59.07;;;;;;;;;;4393697;32;318622;-88
2023/02/10 02:03:35;;;;;;;106.17;53.67;;;;;;;;;;4395486;32;319080;-87
2023/02/10 02:06:02;;;;;;;98.20;52.97;;;;;;;;;;4390365;32;319011;-87
2023/02/10 02:08:31;;;;;;;114.37;57.73;;;;;;;;;;4401141;32;332668;-87
2023/02/10 02:11:07;;;;;;;123.80;62.50;;;;;;;;;;4401784;32;319460;-87
2023/02/10 02:13:55;;;;;;;115.57;61.83;;;;;;;;;;4390325;32;418181;-87
2023/02/10 02:16:35;;;;;;;121.97;59.87;;;;;;;;;;4392266;32;343935;-87
2023/02/10 02:19:15;;;;;;;117.73;63.43;;;;;;;;;;4393722;32;319385;-87
2023/02/10 02:22:27;;;;;;;129.93;62.20;;;;;;;;;;4403947;32;318719;-88
2023/02/10 02:25:16;;;;;;;123.63;62.27;;;;;;;;;;4362974;32;419499;-88
2023/02/10 02:27:55;;;;;;;171.93;82.80;;;;;;;;;;4389299;32;419493;-88
2023/02/10 02:30:57;;;;;;;165.50;79.30;;;;;;;;;;4391430;32;319294;-88
2023/02/10 02:33:32;;;;;;;109.40;58.73;;;;;;;;;;4392759;32;319402;-88
2023/02/10 02:36:05;;;;;;;96.90;45.57;;;;;;;;;;4403012;32;319243;-87
2023/02/10 02:38:37;;;;;;;97.83;45.63;;;;;;;;;;4388435;32;418293;-87
2023/02/10 02:41:04;;;;;;;86.10;40.63;;;;;;;;;;4389654;32;401941;-88
2023/02/10 02:43:31;;;;;;;97.00;42.37;;;;;;;;;;4403324;32;318466;-87
2023/02/10 02:46:03;;;;;;;74.53;32.87;;;;;;;;;;4403129;32;318243;-88
2023/02/10 02:48:57;;;;;;;66.37;32.90;;;;;;;;;;4389252;32;417836;-88
2023/02/10 02:51:35;;;;;;;85.33;39.73;;;;;;;;;;4392420;32;319327;-88
2023/02/10 02:54:11;;;;;;;82.00;36.03;;;;;;;;;;4398393;32;319035;-84
2023/02/10 02:56:44;;;;;;;86.27;44.10;;;;;;;;;;4406292;32;319481;-88
2023/02/10 02:59:18;;;;;;;70.07;37.13;;;;;;;;;;4395543;32;318905;-88
2023/02/10 03:01:51;;;;;;;71.63;37.67;;;;;;;;;;4405664;32;319483;-88
2023/02/10 03:04:19;;;;;;;72.37;36.63;;;;;;;;;;4398044;32;332517;-89
2023/02/10 03:06:46;;;;;;;70.53;35.83;;;;;;;;;;4408808;32;319456;-88
2023/02/10 03:09:14;;;;;;;78.33;37.93;;;;;;;;;;4400520;32;319239;-87
2023/02/10 03:11:40;;;;;;;79.70;41.17;;;;;;;;;;4410195;32;318782;-87
2023/02/10 03:14:07;;;;;;;78.13;39.17;;;;;;;;;;4397428;32;355131;-87
2023/02/10 03:16:34;;;;;;;93.33;40.90;;;;;;;;;;4411001;32;319280;-87
2023/02/10 03:19:01;;;;;;;82.07;40.27;;;;;;;;;;4404468;32;319348;-86
2023/02/10 03:21:29;;;;;;;78.40;40.77;;;;;;;;;;4382555;32;418741;-87
2023/02/10 03:23:56;;;;;;;72.63;37.17;;;;;;;;;;4402746;32;318579;-87
2023/02/10 03:26:23;;;;;;;80.30;38.20;;;;;;;;;;4394738;32;319202;-87
2023/02/10 03:28:49;;;;;;;77.80;37.27;;;;;;;;;;4404762;32;319295;-88
2023/02/10 03:31:16;;;;;;;76.53;38.13;;;;;;;;;;4394062;32;322508;-87
2023/02/10 03:33:43;;;;;;;70.40;37.70;;;;;;;;;;4405328;32;318607;-88
2023/02/10 03:36:10;;;;;;;70.50;38.13;;;;;;;;;;4395643;32;319711;-87
2023/02/10 03:38:38;;;;;;;71.77;39.63;;;;;;;;;;4404749;32;319566;-88
2023/02/10 03:41:05;;;;;;;86.53;44.47;;;;;;;;;;4394532;32;319257;-88
2023/02/10 03:43:32;;;;;;;96.70;44.37;;;;;;;;;;4404651;32;318616;-88
2023/02/10 03:46:01;;;;;;;75.17;39.83;;;;;;;;;;4402881;32;319309;-87
2023/02/10 03:48:31;;;;;;;87.33;43.67;;;;;;;;;;4391060;32;418378;-88
2023/02/10 03:50:58;;;;;;;80.33;40.10;;;;;;;;;;4404336;32;319050;-87
2023/02/10 03:53:25;;;;;;;86.83;42.53;;;;;;;;;;4393406;32;319263;-87
2023/02/10 03:55:53;;;;;;;73.80;40.23;;;;;;;;;;4404604;32;319308;-87
2023/02/10 03:58:20;;;;;;;80.63;40.47;;;;;;;;;;4391997;32;358229;-87
2023/02/10 04:00:47;;;;;;;80.80;42.27;;;;;;;;;;4404492;32;345059;-87
2023/02/10 04:03:14;;;;;;;87.87;43.73;;;;;;;;;;4395384;32;318688;-87
2023/02/10 04:05:41;;;;;;;88.53;46.13;;;;;;;;;;4403380;32;320402;-88
2023/02/10 04:08:09;;;;;;;99.60;49.23;;;;;;;;;;4396977;32;319397;-87
2023/02/10 04:10:39;;;;;;;73.50;39.97;;;;;;;;;;4405563;32;319460;-88
2023/02/10 04:13:07;;;;;;;67.50;33.00;;;;;;;;;;4394419;32;319885;-87
2023/02/10 04:15:34;;;;;;;57.30;28.33;;;;;;;;;;4404243;32;319073;-88
2023/02/10 04:18:00;;;;;;;50.70;25.50;;;;;;;;;;4406204;32;319388;-87
2023/02/10 04:20:27;;;;;;;79.60;38.67;;;;;;;;;;4394185;32;418230;-88
2023/02/10 04:22:54;;;;;;;104.10;51.23;;;;;;;;;;4406151;32;318506;-87
2023/02/10 04:25:21;;;;;;;123.83;60.87;;;;;;;;;;4395012;32;320418;-87
2023/02/10 04:27:47;;;;;;;136.83;65.90;;;;;;;;;;4404668;32;320865;-87
2023/02/10 04:30:16;;;;;;;144.43;70.13;;;;;;;;;;4392188;32;340720;-88
2023/02/10 04:32:42;;;;;;;115.37;60.03;;;;;;;;;;4402001;32;319670;-87
2023/02/10 04:35:09;;;;;;;109.13;51.87;;;;;;;;;;4391114;32;349737;-87
2023/02/10 04:37:36;;;;;;;108.73;50.47;;;;;;;;;;4403501;32;319768;-87
2023/02/10 04:40:03;;;;;;;94.77;46.33;;;;;;;;;;4394425;32;320839;-86
2023/02/10 04:42:30;;;;;;;99.23;49.17;;;;;;;;;;4403590;32;319620;-87
2023/02/10 04:44:58;;;;;;;102.50;50.47;;;;;;;;;;4404666;32;319482;-88
2023/02/10 04:47:27;;;;;;;99.90;49.67;;;;;;;;;;4393429;32;319863;-87
2023/02/10 04:49:54;;;;;;;97.57;47.60;;;;;;;;;;4403950;32;319369;-88
2023/02/10 04:52:21;;;;;;;101.00;51.83;;;;;;;;;;4380257;32;319623;-87
2023/02/10 04:54:48;;;;;;;111.60;53.07;;;;;;;;;;4403478;32;320518;-87
2023/02/10 04:57:15;;;;;;;112.70;53.27;;;;;;;;;;4392199;32;320081;-88
2023/02/10 04:59:41;;;;;;;99.80;52.00;;;;;;;;;;4403314;32;320550;-88
2023/02/10 05:02:08;;;;;;;117.13;59.87;;;;;;;;;;4394279;32;319287;-88
2023/02/10 05:04:36;;;;;;;118.93;59.90;;;;;;;;;;4404431;32;320935;-88
2023/02/10 05:07:03;;;;;;;115.47;56.93;;;;;;;;;;4394191;32;320539;-86
2023/02/10 05:09:30;;;;;;;111.73;60.23;;;;;;;;;;4404006;32;319988;-88
2023/02/10 05:11:57;;;;;;;120.47;61.77;;;;;;;;;;4402891;32;320115;-87
2023/02/10 05:14:23;;;;;;;153.13;68.97;;;;;;;;;;4393226;32;320185;-87
2023/02/10 05:16:50;;;;;;;134.77;67.67;;;;;;;;;;4401434;32;357524;-88
2023/02/10 05:19:17;;;;;;;204.70;94.87;;;;;;;;;;4392975;32;321060;-88
2023/02/10 05:21:45;;;;;;;180.43;86.97;;;;;;;;;;4404798;32;320787;-87
2023/02/10 05:24:12;;;;;;;118.30;62.00;;;;;;;;;;4394229;32;320379;-87
2023/02/10 05:26:39;;;;;;;105.93;59.33;;;;;;;;;;4404264;32;320743;-87
2023/02/10 05:29:06;;;;;;;119.63;59.73;;;;;;;;;;4394273;32;320684;-87
2023/02/10 05:31:33;;;;;;;111.93;62.43;;;;;;;;;;4405950;32;320300;-88
2023/02/10 05:33:59;;;;;;;121.77;63.13;;;;;;;;;;4394509;32;320367;-88
2023/02/10 05:36:26;;;;;;;122.53;64.83;;;;;;;;;;4394368;32;320635;-88
2023/02/10 05:41:39;;;;;;;137.70;68.10;;;;;;;;;;4392181;32;390273;-86
2023/02/10 05:44:06;;;;;;;132.23;70.33;;;;;;;;;;4392658;32;320482;-88
2023/02/10 05:46:32;;;;;;;136.83;72.67;;;;;;;;;;4401674;32;320568;-86
2023/02/10 05:48:59;;;;;;;141.03;75.13;;;;;;;;;;4400016;32;320399;-86
2023/02/10 05:51:26;;;;;;;120.20;65.83;;;;;;;;;;4392184;32;320527;-86
2023/02/10 05:53:54;;;;;;;130.27;65.37;;;;;;;;;;4402931;32;320157;-86
2023/02/10 05:56:21;;;;;;;138.73;72.63;;;;;;;;;;4393022;32;320661;-86
2023/02/10 05:58:48;;;;;;;155.97;79.43;;;;;;;;;;4402633;32;320630;-86
2023/02/10 06:01:15;;;;;;;168.93;89.13;;;;;;;;;;4392376;32;320750;-86
2023/02/10 06:03:42;;;;;;;182.67;90.93;;;;;;;;;;4403014;32;319483;-86
2023/02/10 06:06:09;;;;;;;186.80;98.30;;;;;;;;;;4392059;32;319618;-86
2023/02/10 06:08:36;;;;;;;190.80;95.47;;;;;;;;;;4403136;32;320366;-86
2023/02/10 06:11:04;;;;;;;157.67;85.37;;;;;;;;;;4391011;32;320763;-86
2023/02/10 06:13:31;;;;;;;147.53;78.80;;;;;;;;;;4402899;32;320067;-87
2023/02/10 06:15:58;;;;;;;150.17;77.70;;;;;;;;;;4394511;32;319473;-86
2023/02/10 06:18:25;;;;;;;138.37;73.37;;;;;;;;;;4392032;32;320235;-89
2023/02/10 06:20:52;;;;;;;143.50;73.57;;;;;;;;;;4401895;32;320130;-87
2023/02/10 06:23:19;;;;;;;136.97;67.43;;;;;;;;;;4391412;32;320464;-88
2023/02/10 06:25:46;;;;;;;132.13;69.63;;;;;;;;;;4401049;32;319528;-88
2023/02/10 06:28:15;;;;;;;142.87;73.37;;;;;;;;;;4392145;32;320423;-88
2023/02/10 06:30:42;;;;;;;164.47;79.13;;;;;;;;;;4402978;32;320074;-88
2023/02/10 06:33:09;;;;;;;164.67;79.23;;;;;;;;;;4392690;32;320370;-88
2023/02/10 06:35:35;;;;;;;159.83;82.90;;;;;;;;;;4405207;32;320033;-89
2023/02/10 06:38:02;;;;;;;170.40;87.83;;;;;;;;;;4396729;32;319651;-89
2023/02/10 06:40:29;;;;;;;175.57;94.23;;;;;;;;;;4407478;32;319790;-89
2023/02/10 06:42:56;;;;;;;183.77;94.07;;;;;;;;;;4405345;32;319599;-88
2023/02/10 06:45:24;;;;;;;242.37;111.33;;;;;;;;;;4393729;32;320397;-88
2023/02/10 06:47:51;;;;;;;228.23;113.97;;;;;;;;;;4402294;32;321453;-87
2023/02/10 06:50:18;;;;;;;244.70;117.53;;;;;;;;;;4392382;32;321566;-86
2023/02/10 06:52:46;;;;;;;247.30;120.67;;;;;;;;;;4402083;32;322111;-86
2023/02/10 06:55:12;;;;;;;195.03;106.37;;;;;;;;;;4389758;32;321431;-87
2023/02/10 06:57:39;;;;;;;196.67;99.10;;;;;;;;;;4401481;32;321405;-86
2023/02/10 07:00:09;;;;;;;196.27;97.90;;;;;;;;;;4394482;32;320555;-87
2023/02/10 07:02:38;;;;;;;181.80;94.03;;;;;;;;;;4406082;32;320415;-87
2023/02/10 07:05:07;;;;;;;163.03;78.07;;;;;;;;;;4393160;32;357544;-86
2023/02/10 07:07:34;;;;;;;170.00;87.30;;;;;;;;;;4404736;32;319540;-87
2023/02/10 07:10:00;;;;;;;176.07;80.30;;;;;;;;;;4419005;32;318280;-87
2023/02/10 07:12:27;;;;;;;122.77;68.97;;;;;;;;;;4406720;32;417995;-87
2023/02/10 07:14:57;;;;;;;91.07;51.77;;;;;;;;;;4413495;32;319892;-87
2023/02/10 07:17:24;;;;;;;96.53;48.37;;;;;;;;;;4394774;32;318780;-87
2023/02/10 07:19:52;;;;;;;100.13;51.00;;;;;;;;;;4404772;32;319103;-89
2023/02/10 07:22:20;;;;;;;89.33;47.90;;;;;;;;;;4395537;32;318652;-87
2023/02/10 07:24:47;;;;;;;100.97;53.33;;;;;;;;;;4408553;32;318241;-86
2023/02/10 07:27:23;;;;;;;106.30;56.50;;;;;;;;;;4398068;32;320161;-87
2023/02/10 07:29:52;;;;;;;114.60;62.77;;;;;;;;;;4412671;32;319752;-88
2023/02/10 07:32:18;;;;;;;135.77;71.17;;;;;;;;;;4399079;32;329888;-88
2023/02/10 07:34:46;;;;;;;125.67;68.67;;;;;;;;;;4404760;32;320424;-87
2023/02/10 07:37:14;;;;;;;110.90;62.23;;;;;;;;;;4397232;32;341741;-88
2023/02/10 07:39:41;;;;;;;93.37;49.07;;;;;;;;;;4403500;32;319731;-87
2023/02/10 07:44:50;;;;;;;85.43;44.37;;;;;;;;;;4403618;32;318411;-86
2023/02/10 07:47:17;;;;;;;84.93;43.30;;;;;;;;;;4394788;32;319257;-87
2023/02/10 07:49:44;;;;;;;78.50;42.03;;;;;;;;;;4411780;32;318487;-87
2023/02/10 07:52:11;;;;;;;73.57;37.37;;;;;;;;;;4394640;32;319467;-87
2023/02/10 07:54:47;;;;;;;86.17;41.70;;;;;;;;;;4407115;32;351609;-87
2023/02/10 07:57:14;;;;;;;70.07;35.87;;;;;;;;;;4392675;32;318601;-88
2023/02/10 07:59:40;;;;;;;84.03;47.70;;;;;;;;;;4404034;32;319658;-88
2023/02/10 08:02:09;;;;;;;61.37;34.77;;;;;;;;;;4396854;32;319209;-87
2023/02/10 08:04:37;;;;;;;51.13;29.57;;;;;;;;;;4406898;32;318697;-87
2023/02/10 08:07:04;;;;;;;48.67;30.27;;;;;;;;;;4398754;32;319293;-86
2023/02/10 08:09:31;;;;;;;60.67;29.90;;;;;;;;;;4400295;32;350149;-87
2023/02/10 08:11:59;;;;;;;63.00;34.80;;;;;;;;;;4408574;32;318649;-88
2023/02/10 08:14:26;;;;;;;46.17;26.07;;;;;;;;;;4394108;32;319382;-88
2023/02/10 08:19:36;;;;;;;71.20;33.87;;;;;;;;;;4394853;32;386890;-88
2023/02/10 08:22:03;;;;;;;55.30;28.97;;;;;;;;;;4401520;32;318508;-87
2023/02/10 08:24:31;;;;;;;46.17;25.87;;;;;;;;;;4409759;32;317703;-88
2023/02/10 08:27:02;;;;;;;36.67;22.67;;;;;;;;;;4406646;32;317546;-89
2023/02/10 08:29:28;;;;;;;48.30;25.33;;;;;;;;;;4396294;32;417050;-87
2023/02/10 08:31:58;;;;;;;46.17;24.37;;;;;;;;;;4408885;32;316259;-88
2023/02/10 08:37:07;;;;;;;40.33;22.67;;;;;;;;;;4398236;32;317273;-89
2023/02/10 08:39:36;;;;;;;42.03;23.03;;;;;;;;;;4409181;32;344326;-88
2023/02/10 08:42:04;;;;;;;35.10;20.83;;;;;;;;;;4395044;32;367112;-89
2023/02/10 08:44:31;;;;;;;40.27;22.13;;;;;;;;;;4404269;32;317920;-90
2023/02/10 08:46:58;;;;;;;47.40;22.47;;;;;;;;;;4404454;32;317453;-89
2023/02/10 08:49:25;;;;;;;37.93;21.00;;;;;;;;;;4393836;32;342245;-88
2023/02/10 08:51:52;;;;;;;31.20;20.73;;;;;;;;;;4404610;32;318153;-86
2023/02/10 08:54:19;;;;;;;39.30;23.97;;;;;;;;;;4393142;32;318249;-87
2023/02/10 08:56:46;;;;;;;44.77;24.90;;;;;;;;;;4402849;32;317647;-87
2023/02/10 08:59:15;;;;;;;36.37;20.23;;;;;;;;;;4394491;32;318026;-87
2023/02/10 09:01:41;;;;;;;39.00;20.90;;;;;;;;;;4408961;32;317293;-88
2023/02/10 09:04:08;;;;;;;36.60;19.77;;;;;;;;;;4397899;32;317690;-87
2023/02/10 09:06:38;;;;;;;34.63;19.03;;;;;;;;;;4405362;32;317715;-89
2023/02/10 09:09:06;;;;;;;30.13;18.13;;;;;;;;;;4394162;32;318112;-87
2023/02/10 09:11:33;;;;;;;40.13;21.67;;;;;;;;;;4403730;32;317857;-87
2023/02/10 09:14:00;;;;;;;65.07;27.37;;;;;;;;;;4404903;32;317684;-88
2023/02/10 09:16:31;;;;;;;53.33;24.97;;;;;;;;;;4378221;32;419836;-88
2023/02/10 09:18:58;;;;;;;42.50;22.33;;;;;;;;;;4402079;32;318481;-89
2023/02/10 09:21:25;;;;;;;52.87;24.90;;;;;;;;;;4394505;32;317677;-89
2023/02/10 09:23:52;;;;;;;39.57;21.97;;;;;;;;;;4404029;32;317699;-87
2023/02/10 09:26:19;;;;;;;54.27;24.03;;;;;;;;;;4392133;32;351744;-88
2023/02/10 09:28:48;;;;;;;51.27;26.70;;;;;;;;;;4403945;32;318132;-85
2023/02/10 09:31:16;;;;;;;49.50;22.57;;;;;;;;;;4393759;32;318171;-85
2023/02/10 09:33:44;;;;;;;41.93;21.10;;;;;;;;;;4403493;32;317566;-85
2023/02/10 09:36:15;;;;;;;36.97;20.90;;;;;;;;;;4394547;32;317535;-86
2023/02/10 09:38:41;;;;;;;33.57;19.53;;;;;;;;;;4403725;32;317784;-86
2023/02/10 09:41:22;;;;;;;41.93;22.67;;;;;;;;;;4393585;32;318341;-85
2023/02/10 09:44:09;;;;;;;49.57;22.40;;;;;;;;;;4403465;32;317956;-86
2023/02/10 09:46:49;;;;;;;44.03;23.00;;;;;;;;;;4390409;32;416475;-87
2023/02/10 09:49:48;;;;;;;39.63;21.70;;;;;;;;;;4393607;32;317630;-87
2023/02/10 09:52:28;;;;;;;41.20;23.67;;;;;;;;;;4384426;32;318562;-87
2023/02/10 09:54:56;;;;;;;42.97;21.83;;;;;;;;;;4402063;32;317687;-87
2023/02/10 09:57:31;;;;;;;83.30;36.17;;;;;;;;;;4393066;32;318206;-88
2023/02/10 10:00:00;;;;;;;52.10;24.37;;;;;;;;;;4401461;32;319165;-89
2023/02/10 10:02:32;;;;;;;48.70;21.50;;;;;;;;;;4393487;32;318259;-89
2023/02/10 10:05:00;;;;;;;45.20;20.83;;;;;;;;;;4403751;32;318224;-89
2023/02/10 10:07:35;;;;;;;61.27;26.70;;;;;;;;;;4389891;32;397634;-89
2023/02/10 10:10:07;;;;;;;59.73;25.80;;;;;;;;;;4383343;32;317553;-89
2023/02/10 10:12:34;;;;;;;29.53;18.87;;;;;;;;;;4402064;32;318357;-89
2023/02/10 10:15:00;;;;;;;33.07;18.83;;;;;;;;;;4402762;32;317386;-89
2023/02/10 10:17:51;;;;;;;34.43;19.50;;;;;;;;;;4389929;32;417178;-89
2023/02/10 10:20:39;;;;;;;45.57;21.83;;;;;;;;;;4392194;32;321959;-88
2023/02/10 10:23:20;;;;;;;37.13;21.57;;;;;;;;;;4390160;32;323451;-88
2023/02/10 10:26:03;;;;;;;30.83;17.07;;;;;;;;;;4402404;32;318302;-89
2023/02/10 10:28:43;;;;;;;29.83;17.40;;;;;;;;;;4389878;32;418649;-89
2023/02/10 10:31:13;;;;;;;25.23;15.43;;;;;;;;;;4392550;32;318437;-90
2023/02/10 10:33:46;;;;;;;32.07;18.83;;;;;;;;;;4402697;32;318435;-90
2023/02/10 10:36:16;;;;;;;30.67;17.07;;;;;;;;;;4392926;32;318098;-89
2023/02/10 10:38:50;;;;;;;23.57;16.00;;;;;;;;;;4403461;32;318187;-90
2023/02/10 10:41:17;;;;;;;34.30;16.50;;;;;;;;;;4392679;32;318357;-89
2023/02/10 10:43:47;;;;;;;29.20;14.67;;;;;;;;;;4403252;32;318182;-90
2023/02/10 10:46:24;;;;;;;21.73;13.67;;;;;;;;;;4393848;32;317865;-90
2023/02/10 10:48:51;;;;;;;29.87;17.10;;;;;;;;;;4402726;32;317392;-89
2023/02/10 10:51:18;;;;;;;28.50;18.30;;;;;;;;;;4392320;32;317479;-90
2023/02/10 10:53:49;;;;;;;36.47;17.80;;;;;;;;;;4403198;32;318401;-91
2023/02/10 10:56:30;;;;;;;28.97;16.80;;;;;;;;;;4393395;32;317648;-90
2023/02/10 10:58:58;;;;;;;30.77;16.90;;;;;;;;;;4407384;32;318280;-90
2023/02/10 11:01:34;;;;;;;27.10;16.53;;;;;;;;;;4397695;32;318099;-90
2023/02/10 11:04:06;;;;;;;21.97;13.20;;;;;;;;;;4406282;32;344014;-90
2023/02/10 11:06:36;;;;;;;27.70;14.87;;;;;;;;;;4395032;32;417315;-91
2023/02/10 11:09:17;;;;;;;33.87;19.10;;;;;;;;;;4398221;32;317253;-91
2023/02/10 11:11:45;;;;;;;26.00;16.27;;;;;;;;;;4408106;32;317578;-90
2023/02/10 11:14:16;;;;;;;26.37;15.27;;;;;;;;;;4399598;32;317879;-91
2023/02/10 11:16:47;;;;;;;17.27;9.60;;;;;;;;;;4409380;32;317520;-91
2023/02/10 11:19:23;;;;;;;23.77;14.83;;;;;;;;;;4398781;32;317435;-90
2023/02/10 11:21:51;;;;;;;24.40;12.70;;;;;;;;;;4412736;32;317389;-91
2023/02/10 11:24:23;;;;;;;19.60;13.20;;;;;;;;;;4393561;32;317901;-91
2023/02/10 11:26:58;;;;;;;24.33;13.57;;;;;;;;;;4408474;32;317533;-89
2023/02/10 11:29:25;;;;;;;20.47;12.03;;;;;;;;;;4394639;32;317529;-91
2023/02/10 11:31:53;;;;;;;21.07;11.50;;;;;;;;;;4404169;32;317434;-91
2023/02/10 11:34:28;;;;;;;18.90;11.97;;;;;;;;;;4393290;32;318046;-91
2023/02/10 11:36:57;;;;;;;18.57;11.83;;;;;;;;;;4405158;32;317478;-91
2023/02/10 11:39:29;;;;;;;22.93;14.03;;;;;;;;;;4393029;32;330763;-91
2023/02/10 11:41:56;;;;;;;17.97;11.23;;;;;;;;;;4404927;32;318444;-90
2023/02/10 11:44:29;;;;;;;23.07;12.77;;;;;;;;;;4392506;32;327354;-91
2023/02/10 11:46:59;;;;;;;21.83;13.20;;;;;;;;;;4404177;32;326021;-89
2023/02/10 11:49:30;;;;;;;25.37;11.93;;;;;;;;;;4393890;32;318668;-89
2023/02/10 11:51:58;;;;;;;20.80;12.70;;;;;;;;;;4403339;32;317408;-89
2023/02/10 11:54:27;;;;;;;27.03;13.90;;;;;;;;;;4394625;32;318720;-89
2023/02/10 12:00:07;;;;;;;18.60;11.63;;;;;;;;;;4394492;32;388593;-92
2023/02/10 12:03:09;;;;;;;27.37;11.60;;;;;;;;;;4393268;32;419967;-90
2023/02/10 12:05:43;;;;;;;18.50;11.67;;;;;;;;;;4347651;32;418352;-88
2023/02/10 12:08:18;;;;;;;17.93;11.57;;;;;;;;;;4395022;32;318193;-89
2023/02/10 12:10:49;;;;;;;21.80;10.77;;;;;;;;;;4405222;32;318144;-90
2023/02/10 12:13:27;;;;;;;20.00;11.83;;;;;;;;;;4395573;32;318504;-92
2023/02/10 12:16:05;;;;;;;15.17;9.60;;;;;;;;;;4407738;32;317446;-90
2023/02/10 12:18:54;;;;;;;23.77;10.90;;;;;;;;;;4392569;32;417288;-90
2023/02/10 12:21:43;;;;;;;21.03;11.60;;;;;;;;;;4396514;32;318351;-90
2023/02/10 12:24:32;;;;;;;21.43;12.67;;;;;;;;;;4396736;32;318299;-92
2023/02/10 12:27:08;;;;;;;19.43;11.67;;;;;;;;;;4403793;32;317629;-91
2023/02/10 12:29:47;;;;;;;19.13;12.77;;;;;;;;;;4391522;32;418435;-91
2023/02/10 12:32:25;;;;;;;26.33;14.50;;;;;;;;;;4394518;32;358872;-92
2023/02/10 12:35:14;;;;;;;32.57;14.53;;;;;;;;;;4397500;32;317868;-91
2023/02/10 12:37:50;;;;;;;22.13;13.57;;;;;;;;;;4393618;32;418075;-91
2023/02/10 12:40:38;;;;;;;24.00;12.23;;;;;;;;;;4394784;32;318366;-91
2023/02/10 12:43:19;;;;;;;19.33;11.50;;;;;;;;;;4397468;32;317665;-90
2023/02/10 12:45:55;;;;;;;17.77;10.77;;;;;;;;;;4410510;32;317356;-90
2023/02/10 12:48:29;;;;;;;19.20;9.60;;;;;;;;;;4401641;32;317561;-92
2023/02/10 12:51:11;;;;;;;15.90;10.07;;;;;;;;;;4410166;32;316631;-92
2023/02/10 12:53:42;;;;;;;22.37;11.60;;;;;;;;;;4398461;32;418009;-91
2023/02/10 12:56:16;;;;;;;28.93;15.77;;;;;;;;;;4401933;32;317700;-92
2023/02/10 12:58:47;;;;;;;24.77;13.20;;;;;;;;;;4413538;32;317508;-91
2023/02/10 13:01:20;;;;;;;18.10;12.57;;;;;;;;;;4407386;32;317520;-92
2023/02/10 13:03:50;;;;;;;30.93;14.77;;;;;;;;;;4415399;32;317668;-92
2023/02/10 13:06:28;;;;;;;36.07;19.30;;;;;;;;;;4409678;32;316453;-94
2023/02/10 13:08:59;;;;;;;28.50;15.33;;;;;;;;;;4416508;32;317377;-93
2023/02/10 13:11:38;;;;;;;26.73;16.83;;;;;;;;;;4404256;32;318786;-94
2023/02/10 13:14:14;;;;;;;19.87;12.93;;;;;;;;;;4403416;32;318227;-94
2023/02/10 13:16:52;;;;;;;26.20;14.33;;;;;;;;;;4410154;32;317664;-95
2023/02/10 13:19:30;;;;;;;23.33;14.63;;;;;;;;;;4395501;32;317812;-94
2023/02/10 13:22:03;;;;;;;45.97;27.07;;;;;;;;;;4406230;32;317740;-94
2023/02/10 13:24:42;;;;;;;32.10;17.23;;;;;;;;;;4378391;32;421394;-93
2023/02/10 13:27:21;;;;;;;27.87;17.60;;;;;;;;;;4383027;32;318235;-94
2023/02/10 13:30:00;;;;;;;30.70;16.90;;;;;;;;;;4404921;32;357791;-94
2023/02/10 13:32:37;;;;;;;32.07;17.33;;;;;;;;;;4395962;32;317633;-92
2023/02/10 13:35:08;;;;;;;32.27;21.20;;;;;;;;;;4398214;32;317743;-93
2023/02/10 13:37:39;;;;;;;46.97;28.63;;;;;;;;;;4409021;32;317410;-93
2023/02/10 13:40:17;;;;;;;39.03;24.10;;;;;;;;;;4387136;32;317551;-93
2023/02/10 13:42:49;;;;;;;29.70;15.50;;;;;;;;;;4409331;32;317700;-95
2023/02/10 13:45:23;;;;;;;22.70;14.53;;;;;;;;;;4390325;32;318201;-93
2023/02/10 13:47:53;;;;;;;25.80;15.17;;;;;;;;;;4398983;32;316428;-94
2023/02/10 13:50:26;;;;;;;22.60;15.37;;;;;;;;;;4385975;32;317603;-93
2023/02/10 13:52:55;;;;;;;149.30;112.70;;;;;;;;;;4407417;32;318084;-91
2023/02/10 13:55:42;;;;;;;245.07;137.10;;;;;;;;;;4394686;32;319673;-92
2023/02/10 13:58:28;;;;;;;44.60;30.53;;;;;;;;;;4392557;32;320543;-91
2023/02/10 14:00:57;;;;;;;36.17;20.87;;;;;;;;;;4408471;32;317694;-92
2023/02/10 14:03:25;;;;;;;32.23;16.70;;;;;;;;;;4395385;32;317956;-91
2023/02/10 14:05:55;;;;;;;31.07;14.73;;;;;;;;;;4405275;32;317738;-92
2023/02/10 14:08:35;;;;;;;27.37;15.63;;;;;;;;;;4395409;32;317556;-95
2023/02/10 14:11:05;;;;;;;55.67;29.40;;;;;;;;;;4405058;32;317845;-92
2023/02/10 14:13:33;;;;;;;32.43;16.57;;;;;;;;;;4392275;32;414870;-91
2023/02/10 14:16:05;;;;;;;25.33;15.17;;;;;;;;;;4402451;32;317420;-89
2023/02/10 14:18:33;;;;;;;19.33;11.80;;;;;;;;;;4390434;32;416870;-93
2023/02/10 14:21:04;;;;;;;22.17;13.00;;;;;;;;;;4404277;32;317644;-91
2023/02/10 14:23:33;;;;;;;45.73;26.90;;;;;;;;;;4390090;32;417558;-90
2023/02/10 14:26:03;;;;;;;28.50;15.83;;;;;;;;;;4403063;32;317471;-90
2023/02/10 14:28:34;;;;;;;30.60;17.83;;;;;;;;;;4391027;32;417019;-92
2023/02/10 14:31:06;;;;;;;36.17;22.77;;;;;;;;;;4403245;32;318235;-90